DAL1295 KFLL-KATL
Flight info
| Callsign | DAL1295 |
|---|---|
| Flight time | 1h 24m |
| Altitude | 35000 |
| Route | FRSBE2 STYMY Q77 SHRKS LAIRI LARZZ JJEDI4 |
| Aircraft | A321/M-SDE3FGHIRWY/LB1 |
Departure
| Time | 2026-05-04 00:46 |
|---|---|
| Airport | Fort Lauderdale Hollywood International Airport (KFLL) |
Arrival
| Time | 2026-05-04 02:10 |
|---|---|
| Airport | Hartsfield Jackson Atlanta International Airport (KATL) |
| Time | Latitude | Longitude | Altitude | Speed | Heading |
|---|---|---|---|---|---|
| 2026-05-03 23:19 | 26.07403 | -80.14343 | 13 ft | 0 kts | 180° |
| 2026-05-03 23:50 | 26.07416 | -80.14343 | 13 ft | 2 kts | 180° |
| 2026-05-03 23:50 | 26.07426 | -80.14343 | 13 ft | 2 kts | 180° |
| 2026-05-03 23:50 | 26.07446 | -80.14342 | 13 ft | 2 kts | 207° |
| 2026-05-03 23:50 | 26.07457 | -80.14330 | 13 ft | 2 kts | 246° |
| 2026-05-03 23:51 | 26.07459 | -80.14314 | 13 ft | 2 kts | 278° |
| 2026-05-03 23:51 | 26.07458 | -80.14307 | 13 ft | 0 kts | 275° |
| 2026-05-03 23:53 | 26.07461 | -80.14320 | 13 ft | 3 kts | 287° |
| 2026-05-03 23:53 | 26.07477 | -80.14353 | 13 ft | 6 kts | 295° |
| 2026-05-03 23:53 | 26.07485 | -80.14391 | 13 ft | 3 kts | 276° |
| 2026-05-03 23:53 | 26.07486 | -80.14413 | 13 ft | 1 kts | 272° |
| 2026-05-03 23:54 | 26.07486 | -80.14414 | 13 ft | 0 kts | 272° |
| 2026-05-03 23:54 | 26.07486 | -80.14416 | 13 ft | 0 kts | 272° |
| 2026-05-03 23:54 | 26.07487 | -80.14424 | 13 ft | 1 kts | 271° |
| 2026-05-03 23:55 | 26.07487 | -80.14446 | 13 ft | 4 kts | 271° |
| 2026-05-03 23:55 | 26.07487 | -80.14491 | 13 ft | 7 kts | 270° |
| 2026-05-03 23:55 | 26.07487 | -80.14545 | 13 ft | 3 kts | 271° |
| 2026-05-03 23:55 | 26.07487 | -80.14548 | 13 ft | 0 kts | 271° |
| 2026-05-03 23:58 | 26.07487 | -80.14561 | 13 ft | 5 kts | 271° |
| 2026-05-03 23:58 | 26.07488 | -80.14630 | 13 ft | 11 kts | 270° |
| 2026-05-03 23:58 | 26.07488 | -80.14726 | 13 ft | 13 kts | 271° |
| 2026-05-03 23:59 | 26.07489 | -80.14830 | 13 ft | 13 kts | 270° |
| 2026-05-03 23:59 | 26.07490 | -80.14939 | 13 ft | 14 kts | 270° |
| 2026-05-03 23:59 | 26.07490 | -80.15053 | 13 ft | 13 kts | 271° |
| 2026-05-03 23:59 | 26.07491 | -80.15114 | 13 ft | 6 kts | 270° |
| 2026-05-04 00:00 | 26.07491 | -80.15166 | 13 ft | 6 kts | 270° |
| 2026-05-04 00:00 | 26.07491 | -80.15217 | 13 ft | 4 kts | 270° |
| 2026-05-04 00:00 | 26.07491 | -80.15253 | 13 ft | 4 kts | 270° |
| 2026-05-04 00:00 | 26.07491 | -80.15273 | 13 ft | 2 kts | 270° |
| 2026-05-04 00:01 | 26.07491 | -80.15279 | 13 ft | 0 kts | 270° |
| 2026-05-04 00:05 | 26.07491 | -80.15280 | 13 ft | 0 kts | 271° |
| 2026-05-04 00:06 | 26.07492 | -80.15299 | 13 ft | 4 kts | 271° |
| 2026-05-04 00:06 | 26.07492 | -80.15340 | 13 ft | 6 kts | 271° |
| 2026-05-04 00:06 | 26.07493 | -80.15391 | 13 ft | 6 kts | 270° |
| 2026-05-04 00:06 | 26.07493 | -80.15422 | 13 ft | 0 kts | 270° |
| 2026-05-04 00:09 | 26.07493 | -80.15424 | 13 ft | 0 kts | 270° |
| 2026-05-04 00:09 | 26.07493 | -80.15437 | 13 ft | 2 kts | 270° |
| 2026-05-04 00:10 | 26.07493 | -80.15457 | 13 ft | 3 kts | 270° |
| 2026-05-04 00:10 | 26.07493 | -80.15488 | 13 ft | 4 kts | 269° |
| 2026-05-04 00:10 | 26.07493 | -80.15527 | 13 ft | 5 kts | 270° |
| 2026-05-04 00:10 | 26.07493 | -80.15575 | 13 ft | 6 kts | 270° |
| 2026-05-04 00:11 | 26.07493 | -80.15633 | 13 ft | 8 kts | 271° |
| 2026-05-04 00:11 | 26.07494 | -80.15672 | 12 ft | 0 kts | 270° |
| 2026-05-04 00:16 | 26.07494 | -80.15675 | 12 ft | 1 kts | 270° |
| 2026-05-04 00:16 | 26.07494 | -80.15688 | 12 ft | 2 kts | 270° |
| 2026-05-04 00:16 | 26.07494 | -80.15713 | 12 ft | 3 kts | 271° |
| 2026-05-04 00:17 | 26.07494 | -80.15745 | 12 ft | 2 kts | 270° |
| 2026-05-04 00:17 | 26.07494 | -80.15753 | 12 ft | 0 kts | 270° |
| 2026-05-04 00:22 | 26.07494 | -80.15758 | 12 ft | 1 kts | 270° |
| 2026-05-04 00:22 | 26.07494 | -80.15774 | 12 ft | 2 kts | 269° |
| 2026-05-04 00:22 | 26.07494 | -80.15799 | 12 ft | 3 kts | 269° |
| 2026-05-04 00:22 | 26.07494 | -80.15823 | 12 ft | 0 kts | 270° |
| 2026-05-04 00:24 | 26.07494 | -80.15826 | 12 ft | 0 kts | 270° |
| 2026-05-04 00:24 | 26.07494 | -80.15838 | 12 ft | 2 kts | 271° |
| 2026-05-04 00:24 | 26.07494 | -80.15859 | 12 ft | 3 kts | 271° |
| 2026-05-04 00:24 | 26.07494 | -80.15889 | 12 ft | 4 kts | 271° |
| 2026-05-04 00:25 | 26.07495 | -80.15903 | 12 ft | 0 kts | 270° |
| 2026-05-04 00:25 | 26.07495 | -80.15904 | 12 ft | 0 kts | 270° |
| 2026-05-04 00:26 | 26.07495 | -80.15910 | 12 ft | 1 kts | 270° |
| 2026-05-04 00:26 | 26.07495 | -80.15927 | 12 ft | 2 kts | 270° |
| 2026-05-04 00:26 | 26.07495 | -80.15955 | 12 ft | 4 kts | 270° |
| 2026-05-04 00:26 | 26.07495 | -80.15991 | 12 ft | 5 kts | 270° |
| 2026-05-04 00:27 | 26.07496 | -80.16029 | 12 ft | 5 kts | 270° |
| 2026-05-04 00:27 | 26.07495 | -80.16074 | 12 ft | 5 kts | 270° |
| 2026-05-04 00:27 | 26.07495 | -80.16089 | 12 ft | 0 kts | 270° |
| 2026-05-04 00:29 | 26.07495 | -80.16090 | 12 ft | 0 kts | 270° |
| 2026-05-04 00:29 | 26.07495 | -80.16100 | 12 ft | 2 kts | 270° |
| 2026-05-04 00:29 | 26.07495 | -80.16122 | 12 ft | 3 kts | 270° |
| 2026-05-04 00:30 | 26.07496 | -80.16151 | 12 ft | 4 kts | 271° |
| 2026-05-04 00:30 | 26.07496 | -80.16191 | 12 ft | 5 kts | 271° |
| 2026-05-04 00:30 | 26.07496 | -80.16231 | 12 ft | 2 kts | 270° |
| 2026-05-04 00:30 | 26.07496 | -80.16232 | 12 ft | 0 kts | 270° |
| 2026-05-04 00:31 | 26.07497 | -80.16241 | 12 ft | 2 kts | 270° |
| 2026-05-04 00:31 | 26.07497 | -80.16261 | 12 ft | 3 kts | 270° |
| 2026-05-04 00:32 | 26.07497 | -80.16282 | 12 ft | 0 kts | 270° |
| 2026-05-04 00:35 | 26.07497 | -80.16283 | 12 ft | 0 kts | 270° |
| 2026-05-04 00:35 | 26.07497 | -80.16293 | 12 ft | 3 kts | 270° |
| 2026-05-04 00:35 | 26.07497 | -80.16344 | 12 ft | 9 kts | 270° |
| 2026-05-04 00:35 | 26.07497 | -80.16424 | 12 ft | 10 kts | 270° |
| 2026-05-04 00:36 | 26.07497 | -80.16473 | 12 ft | 0 kts | 271° |
| 2026-05-04 00:38 | 26.07497 | -80.16479 | 12 ft | 1 kts | 270° |
| 2026-05-04 00:38 | 26.07497 | -80.16496 | 12 ft | 2 kts | 270° |
| 2026-05-04 00:38 | 26.07497 | -80.16522 | 12 ft | 1 kts | 270° |
| 2026-05-04 00:39 | 26.07497 | -80.16524 | 12 ft | 0 kts | 270° |
| 2026-05-04 00:39 | 26.07497 | -80.16525 | 12 ft | 0 kts | 271° |
| 2026-05-04 00:39 | 26.07498 | -80.16541 | 12 ft | 3 kts | 271° |
| 2026-05-04 00:39 | 26.07498 | -80.16559 | 12 ft | 0 kts | 270° |
| 2026-05-04 00:40 | 26.07498 | -80.16560 | 12 ft | 0 kts | 270° |
| 2026-05-04 00:40 | 26.07498 | -80.16570 | 12 ft | 0 kts | 270° |
| 2026-05-04 00:41 | 26.07498 | -80.16585 | 12 ft | 3 kts | 270° |
| 2026-05-04 00:41 | 26.07499 | -80.16610 | 12 ft | 1 kts | 280° |
| 2026-05-04 00:41 | 26.07500 | -80.16613 | 12 ft | 0 kts | 285° |
| 2026-05-04 00:42 | 26.07501 | -80.16615 | 12 ft | 0 kts | 287° |
| 2026-05-04 00:42 | 26.07510 | -80.16628 | 12 ft | 4 kts | 321° |
| 2026-05-04 00:43 | 26.07551 | -80.16644 | 12 ft | 8 kts | 353° |
| 2026-05-04 00:43 | 26.07611 | -80.16644 | 12 ft | 8 kts | 1° |
| 2026-05-04 00:43 | 26.07669 | -80.16638 | 12 ft | 7 kts | 27° |
| 2026-05-04 00:43 | 26.07693 | -80.16590 | 12 ft | 3 kts | 85° |
| 2026-05-04 00:44 | 26.07693 | -80.16579 | 12 ft | 0 kts | 88° |
| 2026-05-04 00:45 | 26.07694 | -80.16524 | 12 ft | 32 kts | 90° |
| 2026-05-04 00:45 | 26.07694 | -80.15957 | 12 ft | 111 kts | 90° |
| 2026-05-04 00:45 | 26.07686 | -80.14851 | 110 ft | 163 kts | 89° |
| 2026-05-04 00:46 | 26.07676 | -80.13607 | 803 ft | 165 kts | 89° |
| 2026-05-04 00:46 | 26.07658 | -80.12334 | 1561 ft | 168 kts | 88° |
| 2026-05-04 00:46 | 26.07628 | -80.11017 | 2220 ft | 178 kts | 89° |
| 2026-05-04 00:46 | 26.07764 | -80.09621 | 2748 ft | 192 kts | 71° |
| 2026-05-04 00:47 | 26.08296 | -80.08197 | 3291 ft | 208 kts | 62° |
| 2026-05-04 00:47 | 26.09267 | -80.06958 | 3789 ft | 223 kts | 32° |
| 2026-05-04 00:47 | 26.10747 | -80.06272 | 4225 ft | 241 kts | 16° |
| 2026-05-04 00:47 | 26.12394 | -80.05679 | 4658 ft | 261 kts | 15° |
| 2026-05-04 00:48 | 26.14188 | -80.05037 | 5218 ft | 276 kts | 12° |
| 2026-05-04 00:48 | 26.16078 | -80.04878 | 5967 ft | 276 kts | 349° |
| 2026-05-04 00:48 | 26.17930 | -80.05420 | 6805 ft | 275 kts | 337° |
| 2026-05-04 00:48 | 26.19721 | -80.06139 | 7590 ft | 279 kts | 335° |
| 2026-05-04 00:49 | 26.21504 | -80.06993 | 8368 ft | 279 kts | 323° |
| 2026-05-04 00:49 | 26.22846 | -80.08501 | 9129 ft | 275 kts | 298° |
| 2026-05-04 00:49 | 26.23595 | -80.10414 | 9927 ft | 274 kts | 288° |
| 2026-05-04 00:49 | 26.24274 | -80.12418 | 10605 ft | 281 kts | 288° |
| 2026-05-04 00:50 | 26.25020 | -80.14481 | 10987 ft | 298 kts | 291° |
| 2026-05-04 00:50 | 26.25968 | -80.16612 | 11517 ft | 310 kts | 295° |
| 2026-05-04 00:50 | 26.27076 | -80.18682 | 12220 ft | 314 kts | 298° |
| 2026-05-04 00:50 | 26.28239 | -80.20733 | 12910 ft | 317 kts | 298° |
| 2026-05-04 00:51 | 26.29420 | -80.22810 | 13583 ft | 320 kts | 298° |
| 2026-05-04 00:51 | 26.30606 | -80.24895 | 14249 ft | 322 kts | 298° |
| 2026-05-04 00:51 | 26.31810 | -80.27014 | 14935 ft | 324 kts | 298° |
| 2026-05-04 00:51 | 26.33007 | -80.29122 | 15598 ft | 325 kts | 297° |
| 2026-05-04 00:52 | 26.34221 | -80.31262 | 16249 ft | 327 kts | 297° |
| 2026-05-04 00:52 | 26.35427 | -80.33388 | 16881 ft | 328 kts | 297° |
| 2026-05-04 00:52 | 26.36642 | -80.35534 | 17519 ft | 329 kts | 297° |
| 2026-05-04 00:52 | 26.37867 | -80.37698 | 18113 ft | 331 kts | 297° |
| 2026-05-04 00:53 | 26.39094 | -80.39866 | 18679 ft | 334 kts | 297° |
| 2026-05-04 00:53 | 26.40342 | -80.42072 | 19219 ft | 337 kts | 297° |
| 2026-05-04 00:53 | 26.41580 | -80.44264 | 19763 ft | 339 kts | 297° |
| 2026-05-04 00:53 | 26.42840 | -80.46496 | 20317 ft | 341 kts | 296° |
| 2026-05-04 00:54 | 26.44107 | -80.48740 | 20858 ft | 343 kts | 296° |
| 2026-05-04 00:54 | 26.45375 | -80.50986 | 21386 ft | 345 kts | 296° |
| 2026-05-04 00:54 | 26.46660 | -80.53258 | 21867 ft | 349 kts | 297° |
| 2026-05-04 00:54 | 26.48260 | -80.55343 | 22324 ft | 363 kts | 311° |
| 2026-05-04 00:55 | 26.50394 | -80.56924 | 22782 ft | 379 kts | 327° |
| 2026-05-04 00:55 | 26.52952 | -80.57934 | 23264 ft | 391 kts | 336° |
| 2026-05-04 00:55 | 26.55562 | -80.58759 | 23759 ft | 394 kts | 336° |
| 2026-05-04 00:55 | 26.58234 | -80.59584 | 24211 ft | 398 kts | 336° |
| 2026-05-04 00:56 | 26.60904 | -80.60416 | 24683 ft | 400 kts | 336° |
| 2026-05-04 00:56 | 26.63563 | -80.61248 | 25174 ft | 402 kts | 336° |
| 2026-05-04 00:56 | 26.66276 | -80.62104 | 25608 ft | 405 kts | 336° |
| 2026-05-04 00:56 | 26.69016 | -80.62973 | 26034 ft | 408 kts | 335° |
| 2026-05-04 00:57 | 26.71743 | -80.63841 | 26440 ft | 411 kts | 335° |
| 2026-05-04 00:57 | 26.74507 | -80.64720 | 26871 ft | 414 kts | 335° |
| 2026-05-04 00:57 | 26.77287 | -80.65606 | 27335 ft | 415 kts | 334° |
| 2026-05-04 00:57 | 26.80066 | -80.66492 | 27800 ft | 417 kts | 334° |
| 2026-05-04 00:58 | 26.82877 | -80.67390 | 28193 ft | 420 kts | 334° |
| 2026-05-04 00:58 | 26.85691 | -80.68291 | 28597 ft | 422 kts | 334° |
| 2026-05-04 00:58 | 26.88511 | -80.69190 | 29017 ft | 424 kts | 334° |
| 2026-05-04 00:58 | 26.91354 | -80.70122 | 29383 ft | 425 kts | 332° |
| 2026-05-04 00:59 | 26.94171 | -80.71154 | 29757 ft | 426 kts | 331° |
| 2026-05-04 00:59 | 26.96985 | -80.72211 | 30091 ft | 428 kts | 331° |
| 2026-05-04 00:59 | 26.99822 | -80.73286 | 30459 ft | 430 kts | 330° |
| 2026-05-04 00:59 | 27.02680 | -80.74370 | 30780 ft | 433 kts | 330° |
| 2026-05-04 01:00 | 27.05543 | -80.75458 | 31076 ft | 437 kts | 330° |
| 2026-05-04 01:00 | 27.08421 | -80.76549 | 31466 ft | 437 kts | 330° |
| 2026-05-04 01:00 | 27.11293 | -80.77634 | 31933 ft | 435 kts | 330° |
| 2026-05-04 01:00 | 27.14148 | -80.78713 | 32367 ft | 433 kts | 329° |
| 2026-05-04 01:01 | 27.16922 | -80.79765 | 32752 ft | 432 kts | 329° |
| 2026-05-04 01:01 | 27.19792 | -80.80856 | 33155 ft | 431 kts | 329° |
| 2026-05-04 01:01 | 27.22625 | -80.81934 | 33625 ft | 429 kts | 328° |
| 2026-05-04 01:01 | 27.25457 | -80.83015 | 33956 ft | 430 kts | 328° |
| 2026-05-04 01:02 | 27.28284 | -80.84096 | 34246 ft | 432 kts | 328° |
| 2026-05-04 01:02 | 27.31140 | -80.85185 | 34560 ft | 434 kts | 328° |
| 2026-05-04 01:02 | 27.34021 | -80.86304 | 34871 ft | 433 kts | 327° |
| 2026-05-04 01:02 | 27.36843 | -80.87452 | 35032 ft | 433 kts | 327° |
| 2026-05-04 01:03 | 27.39657 | -80.88612 | 35035 ft | 434 kts | 327° |
| 2026-05-04 01:03 | 27.45340 | -80.90961 | 35037 ft | 433 kts | 327° |
| 2026-05-04 01:04 | 27.50979 | -80.93288 | 35042 ft | 435 kts | 326° |
| 2026-05-04 01:04 | 27.56682 | -80.95640 | 35047 ft | 433 kts | 327° |
| 2026-05-04 01:05 | 27.62337 | -80.97974 | 35048 ft | 434 kts | 327° |
| 2026-05-04 01:05 | 27.68008 | -81.00317 | 35049 ft | 433 kts | 326° |
| 2026-05-04 01:06 | 27.73682 | -81.02666 | 35048 ft | 433 kts | 326° |
| 2026-05-04 01:06 | 27.79361 | -81.05020 | 35047 ft | 434 kts | 326° |
| 2026-05-04 01:07 | 27.85013 | -81.07363 | 35048 ft | 435 kts | 326° |
| 2026-05-04 01:07 | 27.90703 | -81.09731 | 35049 ft | 436 kts | 326° |
| 2026-05-04 01:08 | 27.96394 | -81.12097 | 35047 ft | 435 kts | 326° |
| 2026-05-04 01:08 | 28.02070 | -81.14460 | 35058 ft | 435 kts | 325° |
| 2026-05-04 01:09 | 28.07593 | -81.17110 | 35057 ft | 429 kts | 322° |
| 2026-05-04 01:09 | 28.13009 | -81.19904 | 35064 ft | 430 kts | 321° |
| 2026-05-04 01:10 | 28.18464 | -81.22725 | 35069 ft | 430 kts | 321° |
| 2026-05-04 01:10 | 28.23892 | -81.25528 | 35074 ft | 427 kts | 321° |
| 2026-05-04 01:11 | 28.29339 | -81.28344 | 35080 ft | 427 kts | 321° |
| 2026-05-04 01:11 | 28.34722 | -81.31130 | 35078 ft | 429 kts | 321° |
| 2026-05-04 01:12 | 28.40259 | -81.33965 | 35082 ft | 443 kts | 322° |
| 2026-05-04 01:12 | 28.45955 | -81.36875 | 35079 ft | 456 kts | 322° |
| 2026-05-04 01:13 | 28.51794 | -81.39851 | 35083 ft | 459 kts | 322° |
| 2026-05-04 01:13 | 28.57615 | -81.42825 | 35076 ft | 462 kts | 322° |
| 2026-05-04 01:14 | 28.63481 | -81.45836 | 35089 ft | 461 kts | 323° |
| 2026-05-04 01:14 | 28.69346 | -81.48850 | 35084 ft | 462 kts | 323° |
| 2026-05-04 01:15 | 28.75181 | -81.51853 | 35081 ft | 462 kts | 322° |
| 2026-05-04 01:15 | 28.81049 | -81.54881 | 35088 ft | 462 kts | 323° |
| 2026-05-04 01:16 | 28.86926 | -81.57735 | 35095 ft | 468 kts | 326° |
| 2026-05-04 01:16 | 28.93254 | -81.60003 | 35088 ft | 480 kts | 333° |
| 2026-05-04 01:17 | 28.99905 | -81.61486 | 35099 ft | 492 kts | 340° |
| 2026-05-04 01:17 | 29.06776 | -81.62245 | 35102 ft | 499 kts | 343° |
| 2026-05-04 01:18 | 29.13686 | -81.62844 | 35092 ft | 497 kts | 344° |
| 2026-05-04 01:18 | 29.20605 | -81.63458 | 35088 ft | 498 kts | 344° |
| 2026-05-04 01:19 | 29.27516 | -81.64084 | 35095 ft | 498 kts | 344° |
| 2026-05-04 01:19 | 29.34447 | -81.64719 | 35094 ft | 496 kts | 344° |
| 2026-05-04 01:20 | 29.41335 | -81.65353 | 35106 ft | 494 kts | 344° |
| 2026-05-04 01:20 | 29.48185 | -81.65983 | 35096 ft | 495 kts | 344° |
| 2026-05-04 01:21 | 29.55032 | -81.66615 | 35105 ft | 494 kts | 344° |
| 2026-05-04 01:21 | 29.61887 | -81.67252 | 35090 ft | 492 kts | 344° |
| 2026-05-04 01:22 | 29.68724 | -81.67886 | 35119 ft | 492 kts | 344° |
| 2026-05-04 01:22 | 29.75517 | -81.68506 | 35100 ft | 490 kts | 344° |
| 2026-05-04 01:23 | 29.82330 | -81.69132 | 35098 ft | 490 kts | 344° |
| 2026-05-04 01:23 | 29.89152 | -81.69767 | 35115 ft | 491 kts | 345° |
| 2026-05-04 01:24 | 29.95936 | -81.70396 | 35115 ft | 490 kts | 345° |
| 2026-05-04 01:24 | 30.02757 | -81.71032 | 35112 ft | 491 kts | 345° |
| 2026-05-04 01:25 | 30.09583 | -81.71667 | 35116 ft | 489 kts | 345° |
| 2026-05-04 01:25 | 30.16370 | -81.72301 | 35115 ft | 489 kts | 345° |
| 2026-05-04 01:26 | 30.23121 | -81.72932 | 35115 ft | 488 kts | 345° |
| 2026-05-04 01:26 | 30.29875 | -81.73569 | 35115 ft | 488 kts | 345° |
| 2026-05-04 01:27 | 30.36650 | -81.74204 | 35113 ft | 488 kts | 345° |
| 2026-05-04 01:27 | 30.43419 | -81.74844 | 35118 ft | 488 kts | 345° |
| 2026-05-04 01:28 | 30.50215 | -81.75486 | 35123 ft | 488 kts | 345° |
| 2026-05-04 01:28 | 30.56893 | -81.76382 | 35116 ft | 481 kts | 340° |
| 2026-05-04 01:29 | 30.63360 | -81.78153 | 35111 ft | 471 kts | 333° |
| 2026-05-04 01:29 | 30.69425 | -81.80748 | 35118 ft | 461 kts | 326° |
| 2026-05-04 01:30 | 30.75161 | -81.83966 | 35142 ft | 458 kts | 323° |
| 2026-05-04 01:30 | 30.78008 | -81.85627 | 34975 ft | 458 kts | 323° |
| 2026-05-04 01:30 | 30.80849 | -81.87286 | 35067 ft | 458 kts | 323° |
| 2026-05-04 01:31 | 30.86570 | -81.90616 | 35092 ft | 459 kts | 323° |
| 2026-05-04 01:31 | 30.92281 | -81.93938 | 35139 ft | 459 kts | 323° |
| 2026-05-04 01:32 | 30.97961 | -81.97244 | 35136 ft | 458 kts | 323° |
| 2026-05-04 01:32 | 31.03675 | -82.00568 | 35122 ft | 458 kts | 323° |
| 2026-05-04 01:33 | 31.09383 | -82.03896 | 35115 ft | 459 kts | 323° |
| 2026-05-04 01:33 | 31.14994 | -82.07169 | 35116 ft | 459 kts | 324° |
| 2026-05-04 01:34 | 31.20694 | -82.10501 | 35113 ft | 458 kts | 323° |
| 2026-05-04 01:34 | 31.26422 | -82.13857 | 35110 ft | 459 kts | 324° |
| 2026-05-04 01:35 | 31.32145 | -82.17210 | 35114 ft | 460 kts | 324° |
| 2026-05-04 01:35 | 31.37855 | -82.20559 | 35108 ft | 458 kts | 324° |
| 2026-05-04 01:36 | 31.43539 | -82.23903 | 35116 ft | 458 kts | 324° |
| 2026-05-04 01:36 | 31.49208 | -82.27239 | 35118 ft | 459 kts | 324° |
| 2026-05-04 01:37 | 31.54926 | -82.30608 | 35103 ft | 458 kts | 324° |
| 2026-05-04 01:37 | 31.60626 | -82.33974 | 35113 ft | 459 kts | 324° |
| 2026-05-04 01:38 | 31.66290 | -82.37323 | 35111 ft | 458 kts | 324° |
| 2026-05-04 01:38 | 31.72005 | -82.40708 | 35112 ft | 459 kts | 324° |
| 2026-05-04 01:38 | 31.74802 | -82.42356 | 35108 ft | 442 kts | 324° |
| 2026-05-04 01:39 | 31.77513 | -82.43953 | 35112 ft | 428 kts | 324° |
| 2026-05-04 01:39 | 31.82806 | -82.47110 | 35111 ft | 426 kts | 323° |
| 2026-05-04 01:40 | 31.88078 | -82.50258 | 35109 ft | 426 kts | 324° |
| 2026-05-04 01:40 | 31.93329 | -82.53503 | 35114 ft | 423 kts | 321° |
| 2026-05-04 01:41 | 31.98135 | -82.57195 | 34649 ft | 409 kts | 315° |
| 2026-05-04 01:41 | 32.00378 | -82.59257 | 34064 ft | 406 kts | 312° |
| 2026-05-04 01:41 | 32.02519 | -82.61410 | 33485 ft | 404 kts | 311° |
| 2026-05-04 01:41 | 32.04621 | -82.63557 | 32885 ft | 403 kts | 311° |
| 2026-05-04 01:42 | 32.06721 | -82.65711 | 32208 ft | 404 kts | 310° |
| 2026-05-04 01:42 | 32.08850 | -82.67893 | 31505 ft | 407 kts | 311° |
| 2026-05-04 01:42 | 32.10899 | -82.69993 | 30776 ft | 410 kts | 311° |
| 2026-05-04 01:42 | 32.12982 | -82.72128 | 30133 ft | 409 kts | 311° |
| 2026-05-04 01:43 | 32.15067 | -82.74258 | 29650 ft | 405 kts | 312° |
| 2026-05-04 01:43 | 32.17051 | -82.76290 | 29002 ft | 405 kts | 312° |
| 2026-05-04 01:43 | 32.19174 | -82.78467 | 28269 ft | 406 kts | 313° |
| 2026-05-04 01:43 | 32.21292 | -82.80636 | 27671 ft | 403 kts | 313° |
| 2026-05-04 01:44 | 32.23399 | -82.82794 | 27121 ft | 399 kts | 313° |
| 2026-05-04 01:44 | 32.25487 | -82.84935 | 26561 ft | 395 kts | 313° |
| 2026-05-04 01:44 | 32.27551 | -82.87054 | 25983 ft | 391 kts | 314° |
| 2026-05-04 01:44 | 32.29569 | -82.89131 | 25423 ft | 388 kts | 314° |
| 2026-05-04 01:45 | 32.31614 | -82.91235 | 24856 ft | 385 kts | 314° |
| 2026-05-04 01:45 | 32.33611 | -82.93291 | 24330 ft | 381 kts | 315° |
| 2026-05-04 01:45 | 32.37660 | -82.97469 | 23490 ft | 406 kts | 315° |
| 2026-05-04 01:46 | 32.39830 | -82.99701 | 23119 ft | 414 kts | 316° |
| 2026-05-04 01:46 | 32.41996 | -83.01917 | 22747 ft | 413 kts | 316° |
| 2026-05-04 01:46 | 32.44152 | -83.04127 | 22385 ft | 411 kts | 316° |
| 2026-05-04 01:46 | 32.46305 | -83.06342 | 22017 ft | 409 kts | 316° |
| 2026-05-04 01:47 | 32.48441 | -83.08543 | 21654 ft | 407 kts | 316° |
| 2026-05-04 01:47 | 32.50587 | -83.10755 | 21266 ft | 404 kts | 316° |
| 2026-05-04 01:47 | 32.52692 | -83.12932 | 20892 ft | 401 kts | 316° |
| 2026-05-04 01:47 | 32.54782 | -83.15091 | 20505 ft | 399 kts | 316° |
| 2026-05-04 01:48 | 32.56864 | -83.17245 | 20120 ft | 397 kts | 316° |
| 2026-05-04 01:48 | 32.58929 | -83.19379 | 19743 ft | 395 kts | 316° |
| 2026-05-04 01:48 | 32.60988 | -83.21507 | 19369 ft | 393 kts | 316° |
| 2026-05-04 01:48 | 32.63040 | -83.23631 | 18999 ft | 391 kts | 316° |
| 2026-05-04 01:49 | 32.65076 | -83.25741 | 18624 ft | 389 kts | 316° |
| 2026-05-04 01:49 | 32.67127 | -83.27869 | 18249 ft | 386 kts | 317° |
| 2026-05-04 01:49 | 32.69133 | -83.29953 | 17877 ft | 384 kts | 317° |
| 2026-05-04 01:49 | 32.71127 | -83.32027 | 17508 ft | 382 kts | 317° |
| 2026-05-04 01:50 | 32.73118 | -83.34100 | 17139 ft | 380 kts | 317° |
| 2026-05-04 01:50 | 32.75121 | -83.36187 | 16761 ft | 378 kts | 317° |
| 2026-05-04 01:50 | 32.77083 | -83.38233 | 16392 ft | 376 kts | 317° |
| 2026-05-04 01:50 | 32.79045 | -83.40282 | 16021 ft | 374 kts | 317° |
| 2026-05-04 01:51 | 32.80989 | -83.42312 | 15653 ft | 372 kts | 317° |
| 2026-05-04 01:51 | 32.82927 | -83.44336 | 15358 ft | 370 kts | 317° |
| 2026-05-04 01:51 | 32.84837 | -83.46333 | 15014 ft | 363 kts | 317° |
| 2026-05-04 01:51 | 32.86706 | -83.48289 | 14782 ft | 351 kts | 317° |
| 2026-05-04 01:52 | 32.88504 | -83.50172 | 14588 ft | 339 kts | 317° |
| 2026-05-04 01:52 | 32.90243 | -83.51994 | 14393 ft | 329 kts | 317° |
| 2026-05-04 01:52 | 32.91951 | -83.53785 | 14196 ft | 328 kts | 318° |
| 2026-05-04 01:52 | 32.93679 | -83.55596 | 14021 ft | 327 kts | 318° |
| 2026-05-04 01:53 | 32.95375 | -83.57372 | 13984 ft | 327 kts | 318° |
| 2026-05-04 01:53 | 32.97071 | -83.59145 | 13857 ft | 327 kts | 318° |
| 2026-05-04 01:53 | 32.98785 | -83.60938 | 13588 ft | 325 kts | 318° |
| 2026-05-04 01:53 | 33.00468 | -83.62700 | 13321 ft | 323 kts | 318° |
| 2026-05-04 01:54 | 33.02162 | -83.64475 | 13045 ft | 321 kts | 318° |
| 2026-05-04 01:54 | 33.03834 | -83.66230 | 12777 ft | 320 kts | 317° |
| 2026-05-04 01:54 | 33.05491 | -83.67971 | 12506 ft | 320 kts | 317° |
| 2026-05-04 01:54 | 33.07149 | -83.69715 | 12232 ft | 318 kts | 318° |
| 2026-05-04 01:55 | 33.08798 | -83.71450 | 11959 ft | 315 kts | 318° |
| 2026-05-04 01:55 | 33.10428 | -83.73165 | 11674 ft | 306 kts | 318° |
| 2026-05-04 01:55 | 33.11950 | -83.74767 | 11426 ft | 298 kts | 318° |
| 2026-05-04 01:55 | 33.13492 | -83.76390 | 11235 ft | 288 kts | 318° |
| 2026-05-04 01:56 | 33.14908 | -83.77882 | 11031 ft | 279 kts | 318° |
| 2026-05-04 01:56 | 33.16346 | -83.79401 | 10689 ft | 276 kts | 319° |
| 2026-05-04 01:56 | 33.17777 | -83.80915 | 10295 ft | 275 kts | 319° |
| 2026-05-04 01:56 | 33.19191 | -83.82439 | 9895 ft | 274 kts | 316° |
| 2026-05-04 01:57 | 33.20553 | -83.84036 | 9505 ft | 273 kts | 315° |
| 2026-05-04 01:57 | 33.21879 | -83.85614 | 9177 ft | 271 kts | 315° |
| 2026-05-04 01:57 | 33.23221 | -83.87216 | 8905 ft | 272 kts | 315° |
| 2026-05-04 01:57 | 33.24561 | -83.88815 | 8623 ft | 272 kts | 315° |
| 2026-05-04 01:58 | 33.25898 | -83.90411 | 8344 ft | 271 kts | 315° |
| 2026-05-04 01:58 | 33.27222 | -83.91989 | 8077 ft | 271 kts | 315° |
| 2026-05-04 01:58 | 33.28552 | -83.93576 | 7995 ft | 270 kts | 315° |
| 2026-05-04 01:58 | 33.29977 | -83.95039 | 7974 ft | 271 kts | 331° |
| 2026-05-04 01:59 | 33.31785 | -83.95618 | 7980 ft | 271 kts | 352° |
| 2026-05-04 01:59 | 33.33669 | -83.95812 | 7980 ft | 270 kts | 354° |
| 2026-05-04 01:59 | 33.35551 | -83.95993 | 7989 ft | 271 kts | 354° |
| 2026-05-04 01:59 | 33.37424 | -83.96208 | 7985 ft | 270 kts | 353° |
| 2026-05-04 02:00 | 33.39310 | -83.96457 | 7988 ft | 270 kts | 352° |
| 2026-05-04 02:00 | 33.41178 | -83.96723 | 7989 ft | 270 kts | 352° |
| 2026-05-04 02:00 | 33.43035 | -83.97000 | 7982 ft | 271 kts | 352° |
| 2026-05-04 02:00 | 33.44921 | -83.97288 | 7982 ft | 271 kts | 352° |
| 2026-05-04 02:01 | 33.46784 | -83.97575 | 7985 ft | 271 kts | 352° |
| 2026-05-04 02:01 | 33.48651 | -83.97868 | 7982 ft | 271 kts | 352° |
| 2026-05-04 02:01 | 33.50531 | -83.98163 | 7984 ft | 272 kts | 351° |
| 2026-05-04 02:01 | 33.52393 | -83.98455 | 7842 ft | 267 kts | 352° |
| 2026-05-04 02:02 | 33.54243 | -83.98750 | 7399 ft | 269 kts | 350° |
| 2026-05-04 02:02 | 33.55960 | -83.99511 | 7063 ft | 263 kts | 324° |
| 2026-05-04 02:02 | 33.57348 | -84.00890 | 6900 ft | 253 kts | 317° |
| 2026-05-04 02:02 | 33.58635 | -84.02299 | 6733 ft | 245 kts | 318° |
| 2026-05-04 02:03 | 33.59881 | -84.03614 | 6572 ft | 237 kts | 319° |
| 2026-05-04 02:03 | 33.61125 | -84.04874 | 6397 ft | 228 kts | 320° |
| 2026-05-04 02:03 | 33.62306 | -84.06067 | 6225 ft | 220 kts | 314° |
| 2026-05-04 02:03 | 33.63022 | -84.07641 | 6048 ft | 213 kts | 283° |
| 2026-05-04 02:04 | 33.63191 | -84.09371 | 6019 ft | 203 kts | 274° |
| 2026-05-04 02:04 | 33.63233 | -84.11050 | 5952 ft | 200 kts | 272° |
| 2026-05-04 02:04 | 33.63244 | -84.12695 | 5676 ft | 195 kts | 271° |
| 2026-05-04 02:04 | 33.63242 | -84.14298 | 5403 ft | 190 kts | 271° |
| 2026-05-04 02:05 | 33.63236 | -84.15875 | 5193 ft | 189 kts | 271° |
| 2026-05-04 02:05 | 33.63229 | -84.17429 | 4928 ft | 187 kts | 271° |
| 2026-05-04 02:05 | 33.63222 | -84.18990 | 4671 ft | 187 kts | 271° |
| 2026-05-04 02:05 | 33.63216 | -84.20528 | 4419 ft | 186 kts | 271° |
| 2026-05-04 02:06 | 33.63209 | -84.22091 | 4167 ft | 185 kts | 271° |
| 2026-05-04 02:06 | 33.63205 | -84.23620 | 3925 ft | 184 kts | 271° |
| 2026-05-04 02:06 | 33.63200 | -84.25150 | 3681 ft | 184 kts | 271° |
| 2026-05-04 02:06 | 33.63197 | -84.26691 | 3447 ft | 183 kts | 271° |
| 2026-05-04 02:07 | 33.63193 | -84.28202 | 3219 ft | 182 kts | 272° |
| 2026-05-04 02:07 | 33.63191 | -84.29720 | 2987 ft | 181 kts | 271° |
| 2026-05-04 02:07 | 33.63189 | -84.31236 | 2753 ft | 181 kts | 271° |
| 2026-05-04 02:07 | 33.63186 | -84.32690 | 2511 ft | 168 kts | 271° |
| 2026-05-04 02:08 | 33.63185 | -84.34029 | 2278 ft | 153 kts | 271° |
| 2026-05-04 02:08 | 33.63184 | -84.35255 | 2073 ft | 142 kts | 271° |
| 2026-05-04 02:08 | 33.63186 | -84.36417 | 1899 ft | 138 kts | 271° |
| 2026-05-04 02:08 | 33.63184 | -84.37571 | 1730 ft | 138 kts | 271° |
| 2026-05-04 02:09 | 33.63183 | -84.38702 | 1556 ft | 137 kts | 271° |
| 2026-05-04 02:09 | 33.63182 | -84.39844 | 1375 ft | 136 kts | 271° |
| 2026-05-04 02:09 | 33.63181 | -84.40979 | 1193 ft | 136 kts | 271° |
| 2026-05-04 02:09 | 33.63177 | -84.42111 | 1041 ft | 136 kts | 271° |
| 2026-05-04 02:10 | 33.63191 | -84.43160 | 1022 ft | 104 kts | 266° |
| 2026-05-04 02:10 | 33.63187 | -84.43677 | 1022 ft | 47 kts | 271° |
| 2026-05-04 02:10 | 33.63193 | -84.44014 | 1022 ft | 30 kts | 277° |
| 2026-05-04 02:10 | 33.63253 | -84.44222 | 1022 ft | 19 kts | 306° |
| 2026-05-04 02:11 | 33.63349 | -84.44240 | 1022 ft | 7 kts | 43° |
| 2026-05-04 02:11 | 33.63396 | -84.44202 | 1022 ft | 10 kts | 17° |
| 2026-05-04 02:11 | 33.63492 | -84.44195 | 1022 ft | 16 kts | 1° |
| 2026-05-04 02:11 | 33.63603 | -84.44192 | 1023 ft | 14 kts | 8° |
| 2026-05-04 02:12 | 33.63663 | -84.44107 | 1024 ft | 15 kts | 88° |
| 2026-05-04 02:12 | 33.63663 | -84.43975 | 1024 ft | 16 kts | 91° |
| 2026-05-04 02:12 | 33.63663 | -84.43836 | 1024 ft | 16 kts | 90° |
| 2026-05-04 02:12 | 33.63664 | -84.43694 | 1024 ft | 17 kts | 89° |
| 2026-05-04 02:13 | 33.63663 | -84.43550 | 1024 ft | 17 kts | 91° |
| 2026-05-04 02:13 | 33.63663 | -84.43404 | 1024 ft | 17 kts | 89° |
| 2026-05-04 02:13 | 33.63663 | -84.43253 | 1024 ft | 18 kts | 90° |
| 2026-05-04 02:13 | 33.63670 | -84.43106 | 1024 ft | 16 kts | 66° |
| 2026-05-04 02:14 | 33.63771 | -84.43065 | 1024 ft | 16 kts | 359° |
| 2026-05-04 02:14 | 33.63887 | -84.43066 | 1024 ft | 16 kts | 1° |
| 2026-05-04 02:14 | 33.63986 | -84.43065 | 1024 ft | 5 kts | 11° |
| 2026-05-04 02:14 | 33.64009 | -84.43029 | 1024 ft | 6 kts | 82° |
| 2026-05-04 02:15 | 33.64011 | -84.42996 | 1024 ft | 0 kts | 90° |